createdAt,value
2019-04-10T00:00:30.723Z,77802.31
2019-04-10T00:05:41.061Z,77816.30
2019-04-10T00:10:55.017Z,77827.28
2019-04-10T00:16:10.593Z,77825.28
2019-04-10T00:21:22.946Z,77840.26
2019-04-10T00:26:37.633Z,77858.23
2019-04-10T00:31:54.154Z,77876.22
2019-04-10T00:37:26.720Z,77880.20
2019-04-10T00:42:34.890Z,77900.19
2019-04-10T00:48:04.547Z,77901.18
2019-04-10T00:53:12.743Z,77918.16
2019-04-10T00:58:41.574Z,77924.15
2019-04-10T01:03:52.563Z,77941.13
2019-04-10T01:09:21.519Z,77952.11
2019-04-10T01:14:32.226Z,77960.10
2019-04-10T01:19:50.289Z,77961.10
2019-04-10T01:25:00.225Z,77968.09
2019-04-10T01:30:10.406Z,77988.06
2019-04-10T01:35:18.667Z,78000.05
2019-04-10T01:40:27.538Z,78013.03
2019-04-10T01:45:39.846Z,78028.02
2019-04-10T01:50:47.625Z,78034.01
2019-04-10T01:56:27.462Z,78044.99
2019-04-10T02:01:38.772Z,78055.98
2019-04-10T02:06:55.827Z,78069.96
2019-04-10T02:12:04.551Z,78080.95
2019-04-10T02:17:12.597Z,78087.94
2019-04-10T02:22:20.445Z,78094.93
2019-04-10T02:27:35.411Z,78099.92
2019-04-10T02:32:50.866Z,78117.90
2019-04-10T02:38:25.924Z,78124.89
2019-04-10T02:43:20.998Z,78139.88
2019-04-10T02:48:33.872Z,78156.85
2019-04-10T02:53:50.203Z,78165.84
2019-04-10T02:59:07.236Z,78169.84
2019-04-10T03:04:20.601Z,78177.83
2019-04-10T03:09:52.847Z,78198.80
2019-04-10T03:14:47.641Z,78205.80
2019-04-10T03:20:03.015Z,78213.78
2019-04-10T03:25:15.082Z,78217.77
2019-04-10T03:30:34.656Z,78253.73
2019-04-10T03:35:57.071Z,78267.72
2019-04-10T03:41:03.909Z,78275.70
2019-04-10T03:46:14.581Z,78281.70
2019-04-10T03:51:32.637Z,78281.70
2019-04-10T03:56:46.553Z,78290.69
2019-04-10T04:02:01.585Z,78303.67
2019-04-10T04:07:13.425Z,78321.65
2019-04-10T04:12:28.780Z,78332.63
2019-04-10T04:17:42.463Z,78332.63
2019-04-10T04:22:59.236Z,78351.61
2019-04-10T04:28:11.301Z,78357.61
2019-04-10T04:33:23.207Z,78371.59
2019-04-10T04:38:32.288Z,78385.57
2019-04-10T04:43:47.644Z,78399.55
2019-04-10T04:49:06.799Z,78427.52
2019-04-10T04:54:23.717Z,78439.51
2019-04-10T04:59:37.191Z,78454.48
2019-04-10T05:04:44.087Z,78466.48
2019-04-10T05:09:58.684Z,78483.45
2019-04-10T05:15:10.913Z,78493.45
2019-04-10T05:20:21.979Z,78487.45
2019-04-10T05:25:37.801Z,78498.44
2019-04-10T05:30:56.885Z,78503.44
2019-04-10T05:36:09.563Z,78499.44
2019-04-10T05:41:17.647Z,78497.44
2019-04-10T05:46:30.359Z,78496.44
2019-04-10T05:51:41.607Z,78501.44
2019-04-10T05:57:01.153Z,78499.44
2019-04-10T06:02:08.026Z,78495.44
2019-04-10T06:07:19.721Z,78484.45
2019-04-10T06:12:34.080Z,78500.44
2019-04-10T06:17:49.355Z,78473.47
2019-04-10T06:23:01.628Z,78478.46
2019-04-10T06:28:14.859Z,78473.47
2019-04-10T06:33:29.514Z,78469.47
2019-04-10T06:38:41.209Z,78447.50
2019-04-10T06:43:50.920Z,78443.50
2019-04-10T06:49:09.256Z,78437.51
2019-04-10T06:54:20.961Z,78398.56
2019-04-10T06:59:30.451Z,78401.55
2019-04-10T07:04:47.794Z,78345.63
2019-04-10T07:10:02.314Z,78351.61
2019-04-10T07:15:24.622Z,78332.63
2019-04-10T07:20:37.887Z,78317.66
2019-04-10T07:25:54.860Z,78297.68
2019-04-10T07:31:08.119Z,78273.70
2019-04-10T07:36:20.341Z,78261.72
2019-04-10T07:41:31.869Z,78229.77
2019-04-10T07:46:48.864Z,78182.82
2019-04-10T07:52:03.618Z,78145.86
2019-04-10T07:57:16.266Z,78121.89
2019-04-10T08:02:27.597Z,78110.91
2019-04-10T08:07:40.571Z,78078.95
2019-04-10T08:12:53.199Z,78017.03
2019-04-10T08:18:00.392Z,78016.03
2019-04-10T08:23:15.643Z,78038.00
2019-04-10T08:28:34.862Z,77986.07
2019-04-10T08:33:50.456Z,77943.13
2019-04-10T08:39:00.738Z,77931.14
2019-04-10T08:44:18.081Z,77912.17
2019-04-10T08:49:25.318Z,77947.12
2019-04-10T08:54:36.801Z,77920.16
2019-04-10T08:59:51.979Z,77952.11
2019-04-10T09:04:57.836Z,77927.14
2019-04-10T09:10:14.357Z,77874.22
2019-04-10T09:21:13.320Z,77817.30
2019-04-10T09:26:33.187Z,77774.34
2019-04-10T09:31:40.000Z,77746.39
2019-04-10T09:36:49.231Z,77772.35
2019-04-10T09:42:01.103Z,77734.41
2019-04-10T09:47:12.582Z,77731.41
2019-04-10T09:52:19.045Z,77731.41
2019-04-10T09:57:32.500Z,77676.48
2019-04-10T10:02:45.269Z,77682.47
2019-04-10T10:08:02.446Z,77581.61
2019-04-10T10:13:33.984Z,77516.70
2019-04-10T10:18:46.252Z,77448.80
2019-04-10T10:23:58.143Z,77362.92
2019-04-10T10:30:02.221Z,77222.13
2019-04-10T10:34:30.209Z,77149.23
2019-04-10T10:39:41.172Z,77279.05
2019-04-10T10:44:56.486Z,77220.14
2019-04-10T10:50:01.807Z,77263.07
2019-04-10T10:55:07.742Z,77246.09
2019-04-10T11:00:20.527Z,77187.19
2019-04-10T11:05:37.092Z,77259.08
2019-04-10T11:16:07.601Z,77147.24
2019-04-10T11:21:18.225Z,76887.64
2019-04-10T11:26:32.116Z,76988.48
2019-04-10T11:31:58.033Z,77055.38
2019-04-10T11:37:39.172Z,77008.45
2019-04-10T11:42:40.192Z,77077.34
2019-04-10T11:47:51.224Z,77095.32
2019-04-10T11:53:07.032Z,76835.73
2019-04-10T11:58:28.922Z,76721.91
2019-04-10T12:03:48.520Z,76679.97
2019-04-10T12:09:29.051Z,76940.56
2019-04-10T12:14:21.590Z,76594.11
2019-04-10T12:19:33.296Z,76901.63
2019-04-10T12:24:43.769Z,76820.75
2019-04-10T12:30:33.305Z,76751.86
2019-04-10T12:35:49.953Z,76629.06
2019-04-10T12:41:08.890Z,76476.31
2019-04-10T12:46:15.210Z,76689.95
2019-04-10T12:51:22.480Z,76781.81
2019-04-10T12:56:34.854Z,76161.84
2019-04-10T13:01:51.100Z,76340.54
2019-04-10T13:07:21.246Z,75969.19
2019-04-10T13:12:37.542Z,76735.88
2019-04-10T13:18:16.674Z,76597.11
2019-04-10T13:23:26.465Z,76581.13
2019-04-10T13:28:43.576Z,76558.17
2019-04-10T13:33:53.133Z,76502.27
2019-04-10T13:39:05.137Z,76375.48
2019-04-10T13:44:18.214Z,76542.20
2019-04-10T13:49:31.280Z,75977.17
2019-04-10T13:54:40.985Z,76344.53
2019-04-10T13:59:50.904Z,76572.15
2019-04-10T14:05:13.685Z,76562.16
2019-04-10T14:10:25.010Z,76566.16
2019-04-10T14:15:32.226Z,76126.91
2019-04-10T14:20:51.309Z,76240.71
2019-04-10T14:26:04.589Z,76414.41
2019-04-10T14:31:28.933Z,76178.81
2019-04-10T14:36:42.277Z,76510.25
2019-04-10T14:42:00.160Z,76294.62
2019-04-10T14:47:19.223Z,76634.05
2019-04-10T14:52:28.059Z,76488.29
2019-04-10T14:57:43.046Z,76962.52
2019-04-10T15:02:58.038Z,77099.31
2019-04-10T15:08:12.696Z,77118.29
2019-04-10T15:13:27.722Z,77289.03
2019-04-10T15:18:35.394Z,77271.06
2019-04-10T15:23:47.000Z,77339.95
2019-04-10T15:29:02.319Z,77350.94
2019-04-10T15:34:16.838Z,77334.97
2019-04-10T15:39:33.963Z,77295.02
2019-04-10T15:44:40.846Z,77321.98
2019-04-10T15:49:53.604Z,77366.92
2019-04-10T15:55:01.914Z,77381.90
2019-04-10T16:00:17.180Z,77357.93
2019-04-10T16:05:31.415Z,77374.91
2019-04-10T16:11:05.641Z,77374.91
2019-04-10T16:16:50.831Z,77434.82
2019-04-10T16:22:08.667Z,77497.73
2019-04-10T16:27:24.379Z,77501.73
2019-04-10T16:32:30.140Z,77416.84
2019-04-10T16:37:49.497Z,77500.73
2019-04-10T16:43:06.022Z,77510.72
2019-04-10T16:48:21.651Z,77537.67
2019-04-10T16:53:31.376Z,77542.67
2019-04-10T16:58:41.119Z,77593.59
2019-04-10T17:03:56.771Z,77590.60
2019-04-10T17:09:16.585Z,77577.62
2019-04-10T17:14:24.428Z,77626.55
2019-04-10T17:19:46.573Z,77649.52
2019-04-10T17:24:53.678Z,77662.50
2019-04-10T17:30:05.270Z,77654.52
2019-04-10T17:35:15.976Z,77689.47
2019-04-10T17:40:33.066Z,77630.55
2019-04-10T17:45:31.750Z,77712.44
2019-04-10T17:50:37.813Z,77702.45
2019-04-10T17:55:45.828Z,77736.40
2019-04-10T18:00:57.788Z,77731.41
2019-04-10T18:06:10.931Z,77770.36
2019-04-10T18:11:26.135Z,77786.33
2019-04-10T18:16:38.015Z,77811.30
2019-04-10T18:21:44.490Z,77836.27
2019-04-10T18:26:57.896Z,77849.25
2019-04-10T18:32:05.511Z,77858.23
2019-04-10T18:37:15.954Z,77881.20
2019-04-10T18:42:29.240Z,77913.16
2019-04-10T18:47:38.058Z,77940.13
2019-04-10T18:52:51.837Z,77955.11
2019-04-10T18:57:59.042Z,78000.05
2019-04-10T19:03:44.927Z,78003.05
2019-04-10T19:08:46.206Z,78045.99
2019-04-10T19:14:00.814Z,78059.97
2019-04-10T19:19:08.233Z,78105.92
2019-04-10T19:24:24.162Z,78135.88
2019-04-10T19:29:36.369Z,78153.86
2019-04-10T19:34:41.908Z,78142.87
2019-04-10T19:39:51.782Z,78170.84
2019-04-10T19:45:05.709Z,78181.82
2019-04-10T19:50:17.740Z,78206.79
2019-04-10T19:55:37.919Z,78220.77
2019-04-10T20:00:46.460Z,78247.73
2019-04-10T20:06:22.082Z,78257.73
2019-04-10T20:11:41.453Z,78264.72
2019-04-10T20:16:52.626Z,78287.69
2019-04-10T20:22:12.606Z,78322.64
2019-04-10T20:27:32.053Z,78331.64
2019-04-10T20:32:46.043Z,78349.61
2019-04-10T20:37:57.408Z,78353.61
2019-04-10T20:43:10.734Z,78372.59
2019-04-10T20:48:16.180Z,78389.56
2019-04-10T20:53:24.171Z,78413.54
2019-04-10T20:58:38.233Z,78417.53
2019-04-10T21:04:05.306Z,78419.53
2019-04-10T21:09:19.048Z,78451.49
2019-04-10T21:14:31.768Z,78482.45
2019-04-10T21:19:51.576Z,78493.45
2019-04-10T21:24:54.576Z,78523.41
2019-04-10T21:30:26.254Z,78514.42
2019-04-10T21:35:41.506Z,78533.40
2019-04-10T21:40:59.501Z,78527.41
2019-04-10T21:46:18.545Z,78534.39
2019-04-10T21:51:25.403Z,78563.36
2019-04-10T21:56:41.525Z,78591.33
2019-04-10T22:01:52.968Z,78590.33
2019-04-10T22:07:20.440Z,78609.31
2019-04-10T22:12:34.625Z,78615.30
2019-04-10T22:18:07.323Z,78635.28
2019-04-10T22:23:26.561Z,78636.28
2019-04-10T22:28:37.535Z,78644.27
2019-04-10T22:33:48.847Z,78660.25
2019-04-10T22:39:02.633Z,78678.23
2019-04-10T22:44:13.870Z,78675.23
2019-04-10T22:49:23.698Z,78680.23
2019-04-10T22:54:37.341Z,78687.22
2019-04-10T22:59:51.739Z,78688.22
2019-04-10T23:05:07.616Z,78707.20
2019-04-10T23:10:15.611Z,78727.17
2019-04-10T23:15:25.215Z,78741.16
2019-04-10T23:20:30.612Z,78755.15
2019-04-10T23:25:45.087Z,78750.16
2019-04-10T23:30:50.958Z,78762.14
2019-04-10T23:36:09.729Z,78761.14
2019-04-10T23:41:28.280Z,78761.14
2019-04-10T23:46:45.239Z,78769.13
2019-04-10T23:51:51.625Z,78790.11
2019-04-10T23:57:05.746Z,78787.11
